sensor_id;sensor_type;location;lat;lon;timestamp;P1;durP1;ratioP1;P2;durP2;ratioP2
5379;SDS011;2713;42.680;23.310;2023-07-20T00:01:29;7.07;;;3.10;;
5379;SDS011;2713;42.680;23.310;2023-07-20T00:03:56;3.10;;;2.80;;
5379;SDS011;2713;42.680;23.310;2023-07-20T00:06:23;7.57;;;2.83;;
5379;SDS011;2713;42.680;23.310;2023-07-20T00:08:52;6.57;;;3.27;;
5379;SDS011;2713;42.680;23.310;2023-07-20T00:11:21;5.63;;;3.10;;
5379;SDS011;2713;42.680;23.310;2023-07-20T00:13:48;5.00;;;2.90;;
5379;SDS011;2713;42.680;23.310;2023-07-20T00:16:14;4.43;;;2.80;;
5379;SDS011;2713;42.680;23.310;2023-07-20T00:18:41;7.30;;;3.00;;
5379;SDS011;2713;42.680;23.310;2023-07-20T00:21:08;8.10;;;3.17;;
5379;SDS011;2713;42.680;23.310;2023-07-20T00:23:35;6.83;;;3.50;;
5379;SDS011;2713;42.680;23.310;2023-07-20T00:26:02;5.00;;;3.27;;
5379;SDS011;2713;42.680;23.310;2023-07-20T00:28:30;7.60;;;3.30;;
5379;SDS011;2713;42.680;23.310;2023-07-20T00:30:58;5.93;;;2.97;;
5379;SDS011;2713;42.680;23.310;2023-07-20T00:33:26;7.07;;;3.53;;
5379;SDS011;2713;42.680;23.310;2023-07-20T00:35:52;6.90;;;3.70;;
5379;SDS011;2713;42.680;23.310;2023-07-20T00:38:19;8.20;;;3.70;;
5379;SDS011;2713;42.680;23.310;2023-07-20T00:40:47;6.20;;;3.30;;
5379;SDS011;2713;42.680;23.310;2023-07-20T00:43:14;5.30;;;3.30;;
5379;SDS011;2713;42.680;23.310;2023-07-20T00:45:43;8.73;;;3.60;;
5379;SDS011;2713;42.680;23.310;2023-07-20T00:48:10;6.00;;;3.10;;
5379;SDS011;2713;42.680;23.310;2023-07-20T00:50:37;4.67;;;2.80;;
5379;SDS011;2713;42.680;23.310;2023-07-20T00:53:07;10.03;;;3.33;;
5379;SDS011;2713;42.680;23.310;2023-07-20T00:55:34;10.33;;;3.60;;
5379;SDS011;2713;42.680;23.310;2023-07-20T00:58:01;9.90;;;3.37;;
5379;SDS011;2713;42.680;23.310;2023-07-20T01:00:29;7.83;;;3.10;;
5379;SDS011;2713;42.680;23.310;2023-07-20T01:02:58;9.77;;;3.63;;
5379;SDS011;2713;42.680;23.310;2023-07-20T01:05:28;7.00;;;3.00;;
5379;SDS011;2713;42.680;23.310;2023-07-20T01:08:07;4.70;;;3.10;;
5379;SDS011;2713;42.680;23.310;2023-07-20T01:10:39;10.77;;;3.30;;
5379;SDS011;2713;42.680;23.310;2023-07-20T01:13:09;4.73;;;3.00;;
5379;SDS011;2713;42.680;23.310;2023-07-20T01:15:37;5.27;;;3.07;;
5379;SDS011;2713;42.680;23.310;2023-07-20T01:18:05;7.30;;;2.70;;
5379;SDS011;2713;42.680;23.310;2023-07-20T01:20:33;8.20;;;3.20;;
5379;SDS011;2713;42.680;23.310;2023-07-20T01:23:05;5.83;;;3.07;;
5379;SDS011;2713;42.680;23.310;2023-07-20T01:25:56;5.00;;;3.30;;
5379;SDS011;2713;42.680;23.310;2023-07-20T01:28:43;5.00;;;3.07;;
5379;SDS011;2713;42.680;23.310;2023-07-20T01:34:01;6.03;;;3.10;;
5379;SDS011;2713;42.680;23.310;2023-07-20T01:36:32;8.43;;;3.47;;
5379;SDS011;2713;42.680;23.310;2023-07-20T01:39:01;5.60;;;2.80;;
5379;SDS011;2713;42.680;23.310;2023-07-20T01:41:31;6.93;;;3.13;;
5379;SDS011;2713;42.680;23.310;2023-07-20T01:43:58;9.13;;;3.33;;
5379;SDS011;2713;42.680;23.310;2023-07-20T01:46:25;9.87;;;2.97;;
5379;SDS011;2713;42.680;23.310;2023-07-20T01:48:53;7.37;;;3.43;;
5379;SDS011;2713;42.680;23.310;2023-07-20T01:51:22;6.67;;;2.77;;
5379;SDS011;2713;42.680;23.310;2023-07-20T01:53:49;8.27;;;3.50;;
5379;SDS011;2713;42.680;23.310;2023-07-20T01:56:16;3.60;;;2.87;;
5379;SDS011;2713;42.680;23.310;2023-07-20T01:58:46;6.80;;;3.30;;
5379;SDS011;2713;42.680;23.310;2023-07-20T02:01:13;5.23;;;2.97;;
5379;SDS011;2713;42.680;23.310;2023-07-20T02:03:40;6.07;;;3.17;;
5379;SDS011;2713;42.680;23.310;2023-07-20T02:06:06;4.43;;;2.93;;
5379;SDS011;2713;42.680;23.310;2023-07-20T02:08:34;6.77;;;3.13;;
5379;SDS011;2713;42.680;23.310;2023-07-20T02:11:01;7.50;;;3.73;;
5379;SDS011;2713;42.680;23.310;2023-07-20T02:13:30;11.13;;;3.90;;
5379;SDS011;2713;42.680;23.310;2023-07-20T02:15:56;3.73;;;2.80;;
5379;SDS011;2713;42.680;23.310;2023-07-20T02:18:23;6.77;;;3.30;;
5379;SDS011;2713;42.680;23.310;2023-07-20T02:20:52;7.40;;;3.30;;
5379;SDS011;2713;42.680;23.310;2023-07-20T02:23:19;7.50;;;3.40;;
5379;SDS011;2713;42.680;23.310;2023-07-20T02:25:47;3.03;;;2.50;;
5379;SDS011;2713;42.680;23.310;2023-07-20T02:28:14;5.97;;;3.40;;
5379;SDS011;2713;42.680;23.310;2023-07-20T02:30:41;4.13;;;3.10;;
5379;SDS011;2713;42.680;23.310;2023-07-20T02:33:08;6.47;;;3.37;;
5379;SDS011;2713;42.680;23.310;2023-07-20T02:35:35;5.77;;;3.13;;
5379;SDS011;2713;42.680;23.310;2023-07-20T02:38:01;8.07;;;3.47;;
5379;SDS011;2713;42.680;23.310;2023-07-20T02:40:28;7.70;;;4.43;;
5379;SDS011;2713;42.680;23.310;2023-07-20T02:42:56;8.77;;;3.50;;
5379;SDS011;2713;42.680;23.310;2023-07-20T02:45:23;10.63;;;4.10;;
5379;SDS011;2713;42.680;23.310;2023-07-20T02:47:50;9.10;;;3.40;;
5379;SDS011;2713;42.680;23.310;2023-07-20T02:50:17;5.33;;;3.20;;
5379;SDS011;2713;42.680;23.310;2023-07-20T02:52:44;7.60;;;3.70;;
5379;SDS011;2713;42.680;23.310;2023-07-20T02:55:11;6.33;;;3.90;;
5379;SDS011;2713;42.680;23.310;2023-07-20T02:57:37;4.10;;;3.47;;
5379;SDS011;2713;42.680;23.310;2023-07-20T03:00:06;10.77;;;3.80;;
5379;SDS011;2713;42.680;23.310;2023-07-20T03:02:34;8.60;;;4.07;;
5379;SDS011;2713;42.680;23.310;2023-07-20T03:05:01;6.90;;;4.10;;
5379;SDS011;2713;42.680;23.310;2023-07-20T03:07:31;9.90;;;4.00;;
5379;SDS011;2713;42.680;23.310;2023-07-20T03:09:58;4.33;;;3.93;;
5379;SDS011;2713;42.680;23.310;2023-07-20T03:12:25;8.00;;;4.10;;
5379;SDS011;2713;42.680;23.310;2023-07-20T03:14:52;8.40;;;4.87;;
5379;SDS011;2713;42.680;23.310;2023-07-20T03:17:20;5.80;;;4.30;;
5379;SDS011;2713;42.680;23.310;2023-07-20T03:19:47;6.70;;;3.97;;
5379;SDS011;2713;42.680;23.310;2023-07-20T03:22:14;5.27;;;4.10;;
5379;SDS011;2713;42.680;23.310;2023-07-20T03:24:41;6.00;;;4.00;;
5379;SDS011;2713;42.680;23.310;2023-07-20T03:27:08;8.53;;;4.37;;
5379;SDS011;2713;42.680;23.310;2023-07-20T03:29:35;9.23;;;4.33;;
5379;SDS011;2713;42.680;23.310;2023-07-20T03:32:01;7.33;;;3.60;;
5379;SDS011;2713;42.680;23.310;2023-07-20T03:34:30;8.27;;;4.43;;
5379;SDS011;2713;42.680;23.310;2023-07-20T03:36:56;6.30;;;4.00;;
5379;SDS011;2713;42.680;23.310;2023-07-20T03:39:25;8.33;;;4.17;;
5379;SDS011;2713;42.680;23.310;2023-07-20T03:41:53;6.97;;;4.23;;
5379;SDS011;2713;42.680;23.310;2023-07-20T03:44:20;6.50;;;4.43;;
5379;SDS011;2713;42.680;23.310;2023-07-20T03:46:47;7.73;;;5.00;;
5379;SDS011;2713;42.680;23.310;2023-07-20T03:49:14;9.70;;;4.80;;
5379;SDS011;2713;42.680;23.310;2023-07-20T03:51:42;7.77;;;4.93;;
5379;SDS011;2713;42.680;23.310;2023-07-20T03:54:09;8.47;;;4.60;;
5379;SDS011;2713;42.680;23.310;2023-07-20T03:56:35;8.90;;;4.57;;
5379;SDS011;2713;42.680;23.310;2023-07-20T03:59:02;7.60;;;4.30;;
5379;SDS011;2713;42.680;23.310;2023-07-20T04:01:29;6.67;;;3.70;;
5379;SDS011;2713;42.680;23.310;2023-07-20T04:04:04;5.60;;;4.20;;
5379;SDS011;2713;42.680;23.310;2023-07-20T04:06:32;6.83;;;4.27;;
5379;SDS011;2713;42.680;23.310;2023-07-20T04:09:03;8.40;;;4.73;;
5379;SDS011;2713;42.680;23.310;2023-07-20T04:11:31;7.30;;;4.83;;
5379;SDS011;2713;42.680;23.310;2023-07-20T04:13:57;11.00;;;5.00;;
5379;SDS011;2713;42.680;23.310;2023-07-20T04:16:24;7.00;;;4.50;;
5379;SDS011;2713;42.680;23.310;2023-07-20T04:18:51;11.10;;;5.13;;
5379;SDS011;2713;42.680;23.310;2023-07-20T04:21:18;8.60;;;4.80;;
5379;SDS011;2713;42.680;23.310;2023-07-20T04:23:45;7.90;;;3.90;;
5379;SDS011;2713;42.680;23.310;2023-07-20T04:26:14;10.03;;;4.60;;
5379;SDS011;2713;42.680;23.310;2023-07-20T04:28:41;5.40;;;4.07;;
5379;SDS011;2713;42.680;23.310;2023-07-20T04:31:11;7.37;;;3.90;;
5379;SDS011;2713;42.680;23.310;2023-07-20T04:33:38;5.57;;;3.93;;
5379;SDS011;2713;42.680;23.310;2023-07-20T04:36:05;9.33;;;5.03;;
5379;SDS011;2713;42.680;23.310;2023-07-20T04:38:34;8.33;;;4.17;;
5379;SDS011;2713;42.680;23.310;2023-07-20T04:41:17;6.40;;;3.77;;
5379;SDS011;2713;42.680;23.310;2023-07-20T04:43:46;10.50;;;4.47;;
5379;SDS011;2713;42.680;23.310;2023-07-20T04:46:18;10.73;;;5.00;;
5379;SDS011;2713;42.680;23.310;2023-07-20T04:48:46;10.70;;;4.60;;
5379;SDS011;2713;42.680;23.310;2023-07-20T04:51:14;6.53;;;4.27;;
5379;SDS011;2713;42.680;23.310;2023-07-20T04:53:42;6.67;;;4.47;;
5379;SDS011;2713;42.680;23.310;2023-07-20T04:56:09;8.67;;;4.50;;
5379;SDS011;2713;42.680;23.310;2023-07-20T04:58:37;9.23;;;4.50;;
5379;SDS011;2713;42.680;23.310;2023-07-20T05:01:04;7.10;;;4.20;;
5379;SDS011;2713;42.680;23.310;2023-07-20T05:03:33;11.53;;;4.50;;
5379;SDS011;2713;42.680;23.310;2023-07-20T05:06:00;7.10;;;3.83;;
5379;SDS011;2713;42.680;23.310;2023-07-20T05:08:27;7.90;;;4.60;;
5379;SDS011;2713;42.680;23.310;2023-07-20T05:10:54;13.17;;;5.03;;
5379;SDS011;2713;42.680;23.310;2023-07-20T05:13:20;9.40;;;4.30;;
5379;SDS011;2713;42.680;23.310;2023-07-20T05:15:52;10.40;;;4.30;;
5379;SDS011;2713;42.680;23.310;2023-07-20T05:18:20;13.40;;;4.70;;
5379;SDS011;2713;42.680;23.310;2023-07-20T05:20:48;8.20;;;6.50;;
5379;SDS011;2713;42.680;23.310;2023-07-20T05:23:17;5.10;;;4.60;;
5379;SDS011;2713;42.680;23.310;2023-07-20T05:25:44;9.70;;;5.90;;
5379;SDS011;2713;42.680;23.310;2023-07-20T05:28:11;10.70;;;4.73;;
5379;SDS011;2713;42.680;23.310;2023-07-20T05:30:39;6.77;;;4.40;;
5379;SDS011;2713;42.680;23.310;2023-07-20T05:33:07;6.43;;;4.13;;
5379;SDS011;2713;42.680;23.310;2023-07-20T05:35:35;9.17;;;4.00;;
5379;SDS011;2713;42.680;23.310;2023-07-20T05:38:02;6.40;;;4.10;;
5379;SDS011;2713;42.680;23.310;2023-07-20T05:40:31;9.27;;;4.40;;
5379;SDS011;2713;42.680;23.310;2023-07-20T05:42:58;11.10;;;4.23;;
5379;SDS011;2713;42.680;23.310;2023-07-20T05:45:25;10.53;;;5.10;;
5379;SDS011;2713;42.680;23.310;2023-07-20T05:47:52;6.47;;;4.33;;
5379;SDS011;2713;42.680;23.310;2023-07-20T05:50:20;6.13;;;4.13;;
5379;SDS011;2713;42.680;23.310;2023-07-20T05:52:47;7.70;;;4.00;;
5379;SDS011;2713;42.680;23.310;2023-07-20T05:55:14;5.80;;;4.30;;
5379;SDS011;2713;42.680;23.310;2023-07-20T05:57:41;7.53;;;4.67;;
5379;SDS011;2713;42.680;23.310;2023-07-20T06:00:09;6.87;;;4.30;;
5379;SDS011;2713;42.680;23.310;2023-07-20T06:02:37;10.33;;;4.10;;
5379;SDS011;2713;42.680;23.310;2023-07-20T06:05:04;5.10;;;4.60;;
5379;SDS011;2713;42.680;23.310;2023-07-20T06:07:36;6.83;;;4.30;;
5379;SDS011;2713;42.680;23.310;2023-07-20T06:10:03;10.60;;;4.10;;
5379;SDS011;2713;42.680;23.310;2023-07-20T06:12:31;10.73;;;4.47;;
5379;SDS011;2713;42.680;23.310;2023-07-20T06:15:01;10.10;;;4.20;;
5379;SDS011;2713;42.680;23.310;2023-07-20T06:17:28;9.07;;;4.67;;
5379;SDS011;2713;42.680;23.310;2023-07-20T06:19:55;9.40;;;4.70;;
5379;SDS011;2713;42.680;23.310;2023-07-20T06:22:22;10.67;;;4.67;;
5379;SDS011;2713;42.680;23.310;2023-07-20T06:24:50;13.13;;;4.70;;
5379;SDS011;2713;42.680;23.310;2023-07-20T06:27:17;6.83;;;4.80;;
5379;SDS011;2713;42.680;23.310;2023-07-20T06:29:43;6.50;;;4.17;;
5379;SDS011;2713;42.680;23.310;2023-07-20T06:32:10;7.80;;;4.13;;
5379;SDS011;2713;42.680;23.310;2023-07-20T06:34:37;8.47;;;4.43;;
5379;SDS011;2713;42.680;23.310;2023-07-20T06:37:04;14.43;;;5.27;;
5379;SDS011;2713;42.680;23.310;2023-07-20T06:39:31;11.27;;;5.00;;
5379;SDS011;2713;42.680;23.310;2023-07-20T06:41:59;7.57;;;4.77;;
5379;SDS011;2713;42.680;23.310;2023-07-20T06:44:26;7.43;;;5.30;;
5379;SDS011;2713;42.680;23.310;2023-07-20T06:46:53;13.33;;;6.63;;
5379;SDS011;2713;42.680;23.310;2023-07-20T06:49:25;12.23;;;6.27;;
5379;SDS011;2713;42.680;23.310;2023-07-20T06:51:52;11.17;;;7.37;;
5379;SDS011;2713;42.680;23.310;2023-07-20T06:54:19;9.53;;;6.33;;
5379;SDS011;2713;42.680;23.310;2023-07-20T06:56:46;10.97;;;5.53;;
5379;SDS011;2713;42.680;23.310;2023-07-20T06:59:14;13.03;;;8.10;;
5379;SDS011;2713;42.680;23.310;2023-07-20T07:01:41;15.27;;;6.90;;
5379;SDS011;2713;42.680;23.310;2023-07-20T07:04:08;11.20;;;5.87;;
5379;SDS011;2713;42.680;23.310;2023-07-20T07:06:35;10.07;;;5.80;;
5379;SDS011;2713;42.680;23.310;2023-07-20T07:09:02;8.67;;;5.50;;
5379;SDS011;2713;42.680;23.310;2023-07-20T07:11:29;9.40;;;6.03;;
5379;SDS011;2713;42.680;23.310;2023-07-20T07:13:55;9.60;;;5.83;;
5379;SDS011;2713;42.680;23.310;2023-07-20T07:16:24;12.70;;;6.10;;
5379;SDS011;2713;42.680;23.310;2023-07-20T07:18:51;10.50;;;6.70;;
5379;SDS011;2713;42.680;23.310;2023-07-20T07:21:17;11.03;;;5.93;;
5379;SDS011;2713;42.680;23.310;2023-07-20T07:23:44;9.13;;;5.80;;
5379;SDS011;2713;42.680;23.310;2023-07-20T07:26:12;14.87;;;5.67;;
5379;SDS011;2713;42.680;23.310;2023-07-20T07:28:39;12.70;;;6.50;;
5379;SDS011;2713;42.680;23.310;2023-07-20T07:31:05;14.27;;;5.83;;
5379;SDS011;2713;42.680;23.310;2023-07-20T07:33:34;12.13;;;5.97;;
5379;SDS011;2713;42.680;23.310;2023-07-20T07:36:00;11.67;;;6.70;;
5379;SDS011;2713;42.680;23.310;2023-07-20T07:38:27;16.97;;;6.77;;
5379;SDS011;2713;42.680;23.310;2023-07-20T07:40:54;11.27;;;6.50;;
5379;SDS011;2713;42.680;23.310;2023-07-20T07:43:21;12.90;;;6.20;;
5379;SDS011;2713;42.680;23.310;2023-07-20T07:45:48;16.13;;;6.40;;
5379;SDS011;2713;42.680;23.310;2023-07-20T07:48:14;14.50;;;6.07;;
5379;SDS011;2713;42.680;23.310;2023-07-20T07:50:43;10.13;;;5.90;;
5379;SDS011;2713;42.680;23.310;2023-07-20T07:53:10;11.30;;;6.53;;
5379;SDS011;2713;42.680;23.310;2023-07-20T07:55:37;13.33;;;6.50;;
5379;SDS011;2713;42.680;23.310;2023-07-20T07:58:04;8.50;;;6.47;;
5379;SDS011;2713;42.680;23.310;2023-07-20T08:00:30;16.00;;;6.37;;
5379;SDS011;2713;42.680;23.310;2023-07-20T08:02:57;15.67;;;6.10;;
5379;SDS011;2713;42.680;23.310;2023-07-20T08:05:24;8.70;;;5.60;;
5379;SDS011;2713;42.680;23.310;2023-07-20T08:07:53;10.97;;;6.00;;
5379;SDS011;2713;42.680;23.310;2023-07-20T08:10:19;9.33;;;6.20;;
5379;SDS011;2713;42.680;23.310;2023-07-20T08:12:46;9.77;;;5.50;;
5379;SDS011;2713;42.680;23.310;2023-07-20T08:15:13;8.50;;;5.27;;
5379;SDS011;2713;42.680;23.310;2023-07-20T08:17:40;10.87;;;6.40;;
5379;SDS011;2713;42.680;23.310;2023-07-20T08:20:08;9.03;;;5.17;;
5379;SDS011;2713;42.680;23.310;2023-07-20T08:22:37;11.70;;;5.33;;
5379;SDS011;2713;42.680;23.310;2023-07-20T08:25:06;9.60;;;4.70;;
5379;SDS011;2713;42.680;23.310;2023-07-20T08:27:33;11.30;;;5.17;;
5379;SDS011;2713;42.680;23.310;2023-07-20T08:30:00;8.87;;;4.57;;
5379;SDS011;2713;42.680;23.310;2023-07-20T08:32:27;7.60;;;4.23;;
5379;SDS011;2713;42.680;23.310;2023-07-20T08:34:54;9.10;;;4.50;;
5379;SDS011;2713;42.680;23.310;2023-07-20T08:37:21;5.73;;;3.70;;
5379;SDS011;2713;42.680;23.310;2023-07-20T08:39:48;8.60;;;4.40;;
5379;SDS011;2713;42.680;23.310;2023-07-20T08:42:16;8.23;;;4.33;;
5379;SDS011;2713;42.680;23.310;2023-07-20T08:44:43;7.33;;;4.13;;
5379;SDS011;2713;42.680;23.310;2023-07-20T08:47:11;9.20;;;3.93;;
5379;SDS011;2713;42.680;23.310;2023-07-20T08:49:40;6.47;;;3.37;;
5379;SDS011;2713;42.680;23.310;2023-07-20T08:52:08;9.90;;;3.90;;
5379;SDS011;2713;42.680;23.310;2023-07-20T08:54:35;4.90;;;3.67;;
5379;SDS011;2713;42.680;23.310;2023-07-20T08:57:02;6.77;;;3.67;;
5379;SDS011;2713;42.680;23.310;2023-07-20T08:59:31;9.43;;;4.20;;
5379;SDS011;2713;42.680;23.310;2023-07-20T09:02:00;5.57;;;3.40;;
5379;SDS011;2713;42.680;23.310;2023-07-20T09:04:30;11.00;;;3.73;;
5379;SDS011;2713;42.680;23.310;2023-07-20T09:06:57;5.00;;;3.00;;
5379;SDS011;2713;42.680;23.310;2023-07-20T09:09:24;6.20;;;3.77;;
5379;SDS011;2713;42.680;23.310;2023-07-20T09:11:51;7.70;;;3.50;;
5379;SDS011;2713;42.680;23.310;2023-07-20T09:14:18;8.87;;;3.60;;
5379;SDS011;2713;42.680;23.310;2023-07-20T09:16:49;10.17;;;3.93;;
5379;SDS011;2713;42.680;23.310;2023-07-20T09:19:17;8.97;;;4.23;;
5379;SDS011;2713;42.680;23.310;2023-07-20T09:21:44;5.90;;;3.20;;
5379;SDS011;2713;42.680;23.310;2023-07-20T09:24:12;8.30;;;3.67;;
5379;SDS011;2713;42.680;23.310;2023-07-20T09:26:43;4.57;;;3.37;;
5379;SDS011;2713;42.680;23.310;2023-07-20T09:29:13;4.97;;;3.00;;
5379;SDS011;2713;42.680;23.310;2023-07-20T09:31:40;7.87;;;3.17;;
5379;SDS011;2713;42.680;23.310;2023-07-20T09:34:08;7.90;;;3.57;;
5379;SDS011;2713;42.680;23.310;2023-07-20T09:36:35;7.67;;;3.77;;
5379;SDS011;2713;42.680;23.310;2023-07-20T09:39:03;3.73;;;2.97;;
5379;SDS011;2713;42.680;23.310;2023-07-20T09:41:30;8.90;;;3.20;;
5379;SDS011;2713;42.680;23.310;2023-07-20T09:44:06;9.03;;;3.77;;
5379;SDS011;2713;42.680;23.310;2023-07-20T09:46:41;8.70;;;3.13;;
5379;SDS011;2713;42.680;23.310;2023-07-20T09:49:10;8.70;;;3.20;;
5379;SDS011;2713;42.680;23.310;2023-07-20T09:51:37;5.07;;;3.30;;
5379;SDS011;2713;42.680;23.310;2023-07-20T09:54:04;5.60;;;3.33;;
5379;SDS011;2713;42.680;23.310;2023-07-20T09:56:32;7.83;;;3.20;;
5379;SDS011;2713;42.680;23.310;2023-07-20T09:58:59;7.43;;;3.17;;
5379;SDS011;2713;42.680;23.310;2023-07-20T10:01:26;4.60;;;2.87;;
5379;SDS011;2713;42.680;23.310;2023-07-20T10:03:56;5.50;;;2.67;;
5379;SDS011;2713;42.680;23.310;2023-07-20T10:06:28;7.87;;;3.70;;
5379;SDS011;2713;42.680;23.310;2023-07-20T10:09:00;4.70;;;2.53;;
5379;SDS011;2713;42.680;23.310;2023-07-20T10:11:29;5.83;;;3.00;;
5379;SDS011;2713;42.680;23.310;2023-07-20T10:13:58;10.67;;;3.53;;
5379;SDS011;2713;42.680;23.310;2023-07-20T10:16:26;7.40;;;3.97;;
5379;SDS011;2713;42.680;23.310;2023-07-20T10:18:59;8.10;;;3.80;;
5379;SDS011;2713;42.680;23.310;2023-07-20T10:21:31;6.33;;;3.10;;
5379;SDS011;2713;42.680;23.310;2023-07-20T10:24:02;7.00;;;3.43;;
5379;SDS011;2713;42.680;23.310;2023-07-20T10:26:29;13.40;;;3.40;;
5379;SDS011;2713;42.680;23.310;2023-07-20T10:28:56;5.80;;;3.00;;
5379;SDS011;2713;42.680;23.310;2023-07-20T10:31:24;8.17;;;3.30;;
5379;SDS011;2713;42.680;23.310;2023-07-20T10:33:54;6.80;;;3.33;;
5379;SDS011;2713;42.680;23.310;2023-07-20T10:36:24;6.87;;;3.47;;
5379;SDS011;2713;42.680;23.310;2023-07-20T10:38:56;4.80;;;3.13;;
5379;SDS011;2713;42.680;23.310;2023-07-20T10:41:27;4.30;;;2.97;;
5379;SDS011;2713;42.680;23.310;2023-07-20T10:43:58;5.50;;;3.27;;
5379;SDS011;2713;42.680;23.310;2023-07-20T10:49:10;9.00;;;3.40;;
5379;SDS011;2713;42.680;23.310;2023-07-20T10:51:40;6.20;;;3.90;;
5379;SDS011;2713;42.680;23.310;2023-07-20T10:54:11;7.83;;;4.20;;
5379;SDS011;2713;42.680;23.310;2023-07-20T10:57:30;5.70;;;3.17;;
5379;SDS011;2713;42.680;23.310;2023-07-20T11:00:07;3.77;;;3.10;;
5379;SDS011;2713;42.680;23.310;2023-07-20T11:02:43;5.07;;;3.37;;
5379;SDS011;2713;42.680;23.310;2023-07-20T11:05:32;7.10;;;5.23;;
5379;SDS011;2713;42.680;23.310;2023-07-20T11:08:02;4.83;;;3.47;;
5379;SDS011;2713;42.680;23.310;2023-07-20T11:10:32;8.57;;;4.23;;
5379;SDS011;2713;42.680;23.310;2023-07-20T11:13:18;5.03;;;3.40;;
5379;SDS011;2713;42.680;23.310;2023-07-20T11:15:46;6.00;;;3.67;;
5379;SDS011;2713;42.680;23.310;2023-07-20T11:18:14;7.57;;;4.30;;
5379;SDS011;2713;42.680;23.310;2023-07-20T11:20:41;5.37;;;3.80;;
5379;SDS011;2713;42.680;23.310;2023-07-20T11:23:08;6.27;;;3.30;;
5379;SDS011;2713;42.680;23.310;2023-07-20T11:25:38;5.90;;;3.73;;
5379;SDS011;2713;42.680;23.310;2023-07-20T11:28:08;12.30;;;3.40;;
5379;SDS011;2713;42.680;23.310;2023-07-20T11:30:36;6.73;;;4.00;;
5379;SDS011;2713;42.680;23.310;2023-07-20T11:33:04;10.13;;;3.57;;
5379;SDS011;2713;42.680;23.310;2023-07-20T11:35:31;11.40;;;4.50;;
5379;SDS011;2713;42.680;23.310;2023-07-20T11:38:02;5.37;;;3.93;;
5379;SDS011;2713;42.680;23.310;2023-07-20T11:40:32;9.53;;;4.07;;
5379;SDS011;2713;42.680;23.310;2023-07-20T11:43:00;8.23;;;4.10;;
5379;SDS011;2713;42.680;23.310;2023-07-20T11:45:28;7.30;;;4.37;;
5379;SDS011;2713;42.680;23.310;2023-07-20T11:47:58;8.13;;;4.47;;
5379;SDS011;2713;42.680;23.310;2023-07-20T11:50:25;8.20;;;4.77;;
5379;SDS011;2713;42.680;23.310;2023-07-20T11:52:52;6.33;;;4.80;;
5379;SDS011;2713;42.680;23.310;2023-07-20T11:55:19;5.90;;;4.23;;
5379;SDS011;2713;42.680;23.310;2023-07-20T12:00:39;11.23;;;4.50;;
5379;SDS011;2713;42.680;23.310;2023-07-20T12:03:09;7.53;;;4.80;;
5379;SDS011;2713;42.680;23.310;2023-07-20T12:05:37;7.03;;;5.03;;
5379;SDS011;2713;42.680;23.310;2023-07-20T12:08:05;5.23;;;4.30;;
5379;SDS011;2713;42.680;23.310;2023-07-20T12:10:31;7.70;;;4.90;;
5379;SDS011;2713;42.680;23.310;2023-07-20T12:13:01;8.87;;;4.60;;
5379;SDS011;2713;42.680;23.310;2023-07-20T12:15:28;9.10;;;4.17;;
5379;SDS011;2713;42.680;23.310;2023-07-20T12:17:58;9.23;;;5.40;;
5379;SDS011;2713;42.680;23.310;2023-07-20T12:20:28;5.60;;;4.50;;
5379;SDS011;2713;42.680;23.310;2023-07-20T12:22:56;5.20;;;4.53;;
5379;SDS011;2713;42.680;23.310;2023-07-20T12:25:31;5.40;;;4.60;;
5379;SDS011;2713;42.680;23.310;2023-07-20T12:28:00;5.77;;;4.00;;
5379;SDS011;2713;42.680;23.310;2023-07-20T12:30:28;5.93;;;4.43;;
5379;SDS011;2713;42.680;23.310;2023-07-20T12:32:54;10.17;;;4.30;;
5379;SDS011;2713;42.680;23.310;2023-07-20T12:35:22;9.50;;;4.40;;
5379;SDS011;2713;42.680;23.310;2023-07-20T12:37:52;10.23;;;4.30;;
5379;SDS011;2713;42.680;23.310;2023-07-20T12:40:19;7.07;;;4.50;;
5379;SDS011;2713;42.680;23.310;2023-07-20T12:42:46;5.93;;;3.37;;
5379;SDS011;2713;42.680;23.310;2023-07-20T12:45:13;6.33;;;3.83;;
5379;SDS011;2713;42.680;23.310;2023-07-20T12:47:40;10.30;;;3.60;;
5379;SDS011;2713;42.680;23.310;2023-07-20T12:50:07;9.27;;;4.10;;
5379;SDS011;2713;42.680;23.310;2023-07-20T12:52:37;11.23;;;4.30;;
5379;SDS011;2713;42.680;23.310;2023-07-20T12:55:05;6.50;;;3.83;;
5379;SDS011;2713;42.680;23.310;2023-07-20T12:57:33;13.03;;;4.10;;
5379;SDS011;2713;42.680;23.310;2023-07-20T13:00:00;4.87;;;3.50;;
5379;SDS011;2713;42.680;23.310;2023-07-20T13:02:29;5.20;;;3.37;;
5379;SDS011;2713;42.680;23.310;2023-07-20T13:04:56;7.00;;;3.90;;
5379;SDS011;2713;42.680;23.310;2023-07-20T13:07:29;7.10;;;4.40;;
5379;SDS011;2713;42.680;23.310;2023-07-20T13:09:58;7.40;;;3.80;;
5379;SDS011;2713;42.680;23.310;2023-07-20T13:12:25;6.93;;;3.90;;
5379;SDS011;2713;42.680;23.310;2023-07-20T13:14:53;6.97;;;3.90;;
5379;SDS011;2713;42.680;23.310;2023-07-20T13:17:20;6.17;;;3.77;;
5379;SDS011;2713;42.680;23.310;2023-07-20T13:19:47;6.03;;;3.70;;
5379;SDS011;2713;42.680;23.310;2023-07-20T13:22:14;14.23;;;3.90;;
5379;SDS011;2713;42.680;23.310;2023-07-20T13:24:41;7.03;;;3.73;;
5379;SDS011;2713;42.680;23.310;2023-07-20T13:27:09;12.03;;;4.03;;
5379;SDS011;2713;42.680;23.310;2023-07-20T13:29:36;7.80;;;3.73;;
5379;SDS011;2713;42.680;23.310;2023-07-20T13:32:03;11.30;;;3.93;;
5379;SDS011;2713;42.680;23.310;2023-07-20T13:34:31;6.17;;;3.40;;
5379;SDS011;2713;42.680;23.310;2023-07-20T13:36:58;6.83;;;3.40;;
5379;SDS011;2713;42.680;23.310;2023-07-20T13:39:24;5.83;;;3.40;;
5379;SDS011;2713;42.680;23.310;2023-07-20T13:41:52;9.80;;;4.03;;
5379;SDS011;2713;42.680;23.310;2023-07-20T13:44:21;7.60;;;3.67;;
5379;SDS011;2713;42.680;23.310;2023-07-20T13:46:47;4.50;;;3.33;;
5379;SDS011;2713;42.680;23.310;2023-07-20T13:49:14;6.93;;;3.63;;
5379;SDS011;2713;42.680;23.310;2023-07-20T13:51:41;6.57;;;4.07;;
5379;SDS011;2713;42.680;23.310;2023-07-20T13:54:08;7.50;;;3.57;;
5379;SDS011;2713;42.680;23.310;2023-07-20T13:56:36;9.60;;;4.17;;
5379;SDS011;2713;42.680;23.310;2023-07-20T13:59:04;8.13;;;3.50;;
5379;SDS011;2713;42.680;23.310;2023-07-20T14:01:32;8.30;;;3.30;;
5379;SDS011;2713;42.680;23.310;2023-07-20T14:04:00;9.50;;;3.40;;
5379;SDS011;2713;42.680;23.310;2023-07-20T14:06:29;8.80;;;2.67;;
5379;SDS011;2713;42.680;23.310;2023-07-20T14:08:57;6.43;;;3.50;;
5379;SDS011;2713;42.680;23.310;2023-07-20T14:11:24;10.27;;;3.10;;
5379;SDS011;2713;42.680;23.310;2023-07-20T14:13:51;6.30;;;3.00;;
5379;SDS011;2713;42.680;23.310;2023-07-20T14:16:19;7.57;;;3.53;;
5379;SDS011;2713;42.680;23.310;2023-07-20T14:18:47;6.07;;;3.27;;
5379;SDS011;2713;42.680;23.310;2023-07-20T14:21:14;6.53;;;3.30;;
5379;SDS011;2713;42.680;23.310;2023-07-20T14:23:41;8.60;;;3.50;;
5379;SDS011;2713;42.680;23.310;2023-07-20T14:26:08;5.57;;;3.47;;
5379;SDS011;2713;42.680;23.310;2023-07-20T14:28:35;10.63;;;3.53;;
5379;SDS011;2713;42.680;23.310;2023-07-20T14:31:02;11.13;;;3.80;;
5379;SDS011;2713;42.680;23.310;2023-07-20T14:33:28;9.00;;;2.97;;
5379;SDS011;2713;42.680;23.310;2023-07-20T14:35:57;6.10;;;3.10;;
5379;SDS011;2713;42.680;23.310;2023-07-20T14:38:24;7.80;;;3.97;;
5379;SDS011;2713;42.680;23.310;2023-07-20T14:40:51;7.80;;;3.97;;
5379;SDS011;2713;42.680;23.310;2023-07-20T14:43:18;7.57;;;3.70;;
5379;SDS011;2713;42.680;23.310;2023-07-20T14:45:44;8.50;;;3.60;;
5379;SDS011;2713;42.680;23.310;2023-07-20T14:48:11;7.90;;;3.40;;
5379;SDS011;2713;42.680;23.310;2023-07-20T14:50:38;6.50;;;3.40;;
5379;SDS011;2713;42.680;23.310;2023-07-20T14:53:06;4.53;;;3.60;;
5379;SDS011;2713;42.680;23.310;2023-07-20T14:55:34;6.80;;;3.20;;
5379;SDS011;2713;42.680;23.310;2023-07-20T14:58:01;5.07;;;3.77;;
5379;SDS011;2713;42.680;23.310;2023-07-20T15:00:28;6.50;;;3.50;;
5379;SDS011;2713;42.680;23.310;2023-07-20T15:02:55;9.47;;;3.90;;
5379;SDS011;2713;42.680;23.310;2023-07-20T15:05:22;7.20;;;3.20;;
5379;SDS011;2713;42.680;23.310;2023-07-20T15:07:51;6.90;;;4.13;;
5379;SDS011;2713;42.680;23.310;2023-07-20T15:10:20;5.60;;;3.10;;
5379;SDS011;2713;42.680;23.310;2023-07-20T15:12:47;6.93;;;3.70;;